sensor_id;sensor_type;location;lat;lon;timestamp;pressure;altitude;pressure_sealevel;temperature;humidity
68525;BME280;55524;51.380;13.372;2024-03-29T00:01:34;98922.53;;;7.20;100.00
68525;BME280;55524;51.380;13.372;2024-03-29T00:04:00;98929.03;;;7.13;100.00
68525;BME280;55524;51.380;13.372;2024-03-29T00:06:27;98922.16;;;7.10;100.00
68525;BME280;55524;51.380;13.372;2024-03-29T00:08:53;98923.72;;;7.14;100.00
68525;BME280;55524;51.380;13.372;2024-03-29T00:11:19;98913.28;;;7.13;100.00
68525;BME280;55524;51.380;13.372;2024-03-29T00:13:45;98912.03;;;7.20;100.00
68525;BME280;55524;51.380;13.372;2024-03-29T00:16:12;98918.84;;;7.24;100.00
68525;BME280;55524;51.380;13.372;2024-03-29T00:18:38;98924.97;;;7.25;100.00
68525;BME280;55524;51.380;13.372;2024-03-29T00:21:04;98934.91;;;7.18;100.00
68525;BME280;55524;51.380;13.372;2024-03-29T00:23:30;98931.31;;;7.21;100.00
68525;BME280;55524;51.380;13.372;2024-03-29T00:25:57;98916.03;;;7.29;100.00
68525;BME280;55524;51.380;13.372;2024-03-29T00:28:24;98922.50;;;7.39;100.00
68525;BME280;55524;51.380;13.372;2024-03-29T00:30:50;98916.13;;;7.45;100.00
68525;BME280;55524;51.380;13.372;2024-03-29T00:33:17;98925.09;;;7.41;100.00
68525;BME280;55524;51.380;13.372;2024-03-29T00:35:43;98923.72;;;7.32;100.00
68525;BME280;55524;51.380;13.372;2024-03-29T00:38:09;98928.94;;;7.33;100.00
68525;BME280;55524;51.380;13.372;2024-03-29T00:40:38;98925.66;;;7.28;100.00
68525;BME280;55524;51.380;13.372;2024-03-29T00:43:05;98940.88;;;7.22;100.00
68525;BME280;55524;51.380;13.372;2024-03-29T00:45:31;98944.03;;;7.28;100.00
68525;BME280;55524;51.380;13.372;2024-03-29T00:47:57;98925.84;;;7.43;100.00
68525;BME280;55524;51.380;13.372;2024-03-29T00:50:23;98918.44;;;7.51;100.00
68525;BME280;55524;51.380;13.372;2024-03-29T00:52:50;98920.91;;;7.54;100.00
68525;BME280;55524;51.380;13.372;2024-03-29T00:55:16;98918.91;;;7.59;100.00
68525;BME280;55524;51.380;13.372;2024-03-29T00:57:43;98925.22;;;7.55;100.00
68525;BME280;55524;51.380;13.372;2024-03-29T01:00:10;98933.97;;;7.55;100.00
68525;BME280;55524;51.380;13.372;2024-03-29T01:02:37;98940.31;;;7.51;100.00
68525;BME280;55524;51.380;13.372;2024-03-29T01:05:03;98930.88;;;7.47;100.00
68525;BME280;55524;51.380;13.372;2024-03-29T01:07:29;98939.34;;;7.35;100.00
68525;BME280;55524;51.380;13.372;2024-03-29T01:09:56;98945.53;;;7.34;100.00
68525;BME280;55524;51.380;13.372;2024-03-29T01:12:22;98950.69;;;7.18;100.00
68525;BME280;55524;51.380;13.372;2024-03-29T01:14:49;98968.16;;;7.00;100.00
68525;BME280;55524;51.380;13.372;2024-03-29T01:17:15;98979.34;;;6.85;100.00
68525;BME280;55524;51.380;13.372;2024-03-29T01:19:41;98981.13;;;6.84;100.00
68525;BME280;55524;51.380;13.372;2024-03-29T01:22:07;98989.44;;;6.75;100.00
68525;BME280;55524;51.380;13.372;2024-03-29T01:24:34;98987.97;;;6.70;100.00
68525;BME280;55524;51.380;13.372;2024-03-29T01:27:00;98979.38;;;6.66;100.00
68525;BME280;55524;51.380;13.372;2024-03-29T01:29:27;98970.00;;;6.79;100.00
68525;BME280;55524;51.380;13.372;2024-03-29T01:31:53;98958.09;;;6.91;100.00
68525;BME280;55524;51.380;13.372;2024-03-29T01:34:20;98959.06;;;6.88;100.00
68525;BME280;55524;51.380;13.372;2024-03-29T01:36:46;98961.63;;;6.90;100.00
68525;BME280;55524;51.380;13.372;2024-03-29T01:39:13;98960.94;;;6.86;100.00
68525;BME280;55524;51.380;13.372;2024-03-29T01:41:41;98957.38;;;6.87;100.00
68525;BME280;55524;51.380;13.372;2024-03-29T01:44:07;98960.97;;;7.04;100.00
68525;BME280;55524;51.380;13.372;2024-03-29T01:46:36;98962.03;;;7.00;100.00
68525;BME280;55524;51.380;13.372;2024-03-29T01:49:04;98968.72;;;6.88;100.00
68525;BME280;55524;51.380;13.372;2024-03-29T01:51:31;98966.41;;;6.82;100.00
68525;BME280;55524;51.380;13.372;2024-03-29T01:53:59;98959.00;;;6.71;100.00
68525;BME280;55524;51.380;13.372;2024-03-29T01:56:26;98961.28;;;6.79;100.00
68525;BME280;55524;51.380;13.372;2024-03-29T01:58:55;98959.00;;;6.90;100.00
68525;BME280;55524;51.380;13.372;2024-03-29T02:01:24;98962.41;;;6.92;100.00
68525;BME280;55524;51.380;13.372;2024-03-29T02:03:52;98974.91;;;6.87;100.00
68525;BME280;55524;51.380;13.372;2024-03-29T02:06:19;98974.53;;;6.76;100.00
68525;BME280;55524;51.380;13.372;2024-03-29T02:08:45;98976.03;;;6.62;100.00
68525;BME280;55524;51.380;13.372;2024-03-29T02:11:13;98986.16;;;6.51;100.00
68525;BME280;55524;51.380;13.372;2024-03-29T02:13:39;98986.22;;;6.50;100.00
68525;BME280;55524;51.380;13.372;2024-03-29T02:16:06;98988.25;;;6.43;100.00
68525;BME280;55524;51.380;13.372;2024-03-29T02:18:32;99005.84;;;6.21;100.00
68525;BME280;55524;51.380;13.372;2024-03-29T02:20:58;99006.69;;;6.21;100.00
68525;BME280;55524;51.380;13.372;2024-03-29T02:23:29;98998.44;;;6.30;100.00
68525;BME280;55524;51.380;13.372;2024-03-29T02:25:56;98996.88;;;6.26;100.00
68525;BME280;55524;51.380;13.372;2024-03-29T02:28:26;99011.28;;;6.16;100.00
68525;BME280;55524;51.380;13.372;2024-03-29T02:30:52;99007.38;;;6.06;100.00
68525;BME280;55524;51.380;13.372;2024-03-29T02:33:20;99020.97;;;5.94;100.00
68525;BME280;55524;51.380;13.372;2024-03-29T02:35:47;99031.28;;;5.76;100.00
68525;BME280;55524;51.380;13.372;2024-03-29T02:38:13;99031.16;;;5.57;100.00
68525;BME280;55524;51.380;13.372;2024-03-29T02:40:39;99024.84;;;5.63;100.00
68525;BME280;55524;51.380;13.372;2024-03-29T02:43:06;99026.16;;;5.51;100.00
68525;BME280;55524;51.380;13.372;2024-03-29T02:45:33;99031.09;;;5.37;100.00
68525;BME280;55524;51.380;13.372;2024-03-29T02:48:00;99044.44;;;5.31;100.00
68525;BME280;55524;51.380;13.372;2024-03-29T02:50:27;99054.19;;;5.27;100.00
68525;BME280;55524;51.380;13.372;2024-03-29T02:52:53;99068.13;;;5.28;100.00
68525;BME280;55524;51.380;13.372;2024-03-29T02:55:19;99061.03;;;5.30;100.00
68525;BME280;55524;51.380;13.372;2024-03-29T02:57:45;99069.19;;;5.22;100.00
68525;BME280;55524;51.380;13.372;2024-03-29T03:00:12;99061.84;;;5.32;100.00
68525;BME280;55524;51.380;13.372;2024-03-29T03:02:39;99062.41;;;5.40;100.00
68525;BME280;55524;51.380;13.372;2024-03-29T03:05:06;99060.94;;;5.33;100.00
68525;BME280;55524;51.380;13.372;2024-03-29T03:07:34;99078.13;;;5.40;100.00
68525;BME280;55524;51.380;13.372;2024-03-29T03:10:19;99060.81;;;5.58;100.00
68525;BME280;55524;51.380;13.372;2024-03-29T03:13:03;99052.63;;;5.67;100.00
68525;BME280;55524;51.380;13.372;2024-03-29T03:15:30;99054.44;;;5.65;100.00
68525;BME280;55524;51.380;13.372;2024-03-29T03:17:56;99050.34;;;5.58;100.00
68525;BME280;55524;51.380;13.372;2024-03-29T03:20:22;99051.69;;;5.46;100.00
68525;BME280;55524;51.380;13.372;2024-03-29T03:22:51;99049.44;;;5.37;100.00
68525;BME280;55524;51.380;13.372;2024-03-29T03:25:17;99048.03;;;5.28;100.00
68525;BME280;55524;51.380;13.372;2024-03-29T03:27:44;99064.09;;;5.19;100.00
68525;BME280;55524;51.380;13.372;2024-03-29T03:30:10;99061.19;;;5.27;100.00
68525;BME280;55524;51.380;13.372;2024-03-29T03:32:37;99055.81;;;5.30;100.00
68525;BME280;55524;51.380;13.372;2024-03-29T03:35:03;99045.00;;;5.39;100.00
68525;BME280;55524;51.380;13.372;2024-03-29T03:37:30;99036.09;;;5.43;100.00
68525;BME280;55524;51.380;13.372;2024-03-29T03:39:56;99043.81;;;5.46;100.00
68525;BME280;55524;51.380;13.372;2024-03-29T03:42:23;99043.69;;;5.49;100.00
68525;BME280;55524;51.380;13.372;2024-03-29T03:44:50;99040.91;;;5.54;100.00
68525;BME280;55524;51.380;13.372;2024-03-29T03:47:16;99053.03;;;5.56;100.00
68525;BME280;55524;51.380;13.372;2024-03-29T03:49:43;99051.69;;;5.46;100.00
68525;BME280;55524;51.380;13.372;2024-03-29T03:52:10;99050.22;;;5.39;100.00
68525;BME280;55524;51.380;13.372;2024-03-29T03:54:36;99055.34;;;5.42;100.00
68525;BME280;55524;51.380;13.372;2024-03-29T03:57:03;99057.34;;;5.35;100.00
68525;BME280;55524;51.380;13.372;2024-03-29T03:59:30;99054.22;;;5.26;100.00
68525;BME280;55524;51.380;13.372;2024-03-29T04:01:56;99041.41;;;5.18;100.00
68525;BME280;55524;51.380;13.372;2024-03-29T04:04:23;99037.47;;;5.08;100.00
68525;BME280;55524;51.380;13.372;2024-03-29T04:06:49;99032.63;;;4.97;100.00
68525;BME280;55524;51.380;13.372;2024-03-29T04:09:16;99039.06;;;4.88;100.00
68525;BME280;55524;51.380;13.372;2024-03-29T04:11:42;99043.47;;;4.86;100.00
68525;BME280;55524;51.380;13.372;2024-03-29T04:14:09;99041.00;;;4.83;100.00
68525;BME280;55524;51.380;13.372;2024-03-29T04:16:35;99040.34;;;4.77;100.00
68525;BME280;55524;51.380;13.372;2024-03-29T04:19:01;99042.06;;;4.78;100.00
68525;BME280;55524;51.380;13.372;2024-03-29T04:21:27;99046.50;;;4.76;100.00
68525;BME280;55524;51.380;13.372;2024-03-29T04:23:54;99044.84;;;4.73;100.00
68525;BME280;55524;51.380;13.372;2024-03-29T04:26:20;99056.25;;;4.71;100.00
68525;BME280;55524;51.380;13.372;2024-03-29T04:28:46;99052.06;;;4.66;100.00
68525;BME280;55524;51.380;13.372;2024-03-29T04:31:13;99045.13;;;4.65;100.00
68525;BME280;55524;51.380;13.372;2024-03-29T04:33:39;99047.72;;;4.65;100.00
68525;BME280;55524;51.380;13.372;2024-03-29T04:36:06;99048.66;;;4.64;100.00
68525;BME280;55524;51.380;13.372;2024-03-29T04:38:32;99053.66;;;4.71;100.00
68525;BME280;55524;51.380;13.372;2024-03-29T04:40:59;99047.38;;;4.75;100.00
68525;BME280;55524;51.380;13.372;2024-03-29T04:43:28;99049.13;;;4.76;100.00
68525;BME280;55524;51.380;13.372;2024-03-29T04:46:09;99034.19;;;4.78;100.00
68525;BME280;55524;51.380;13.372;2024-03-29T04:48:36;99021.38;;;4.72;100.00
68525;BME280;55524;51.380;13.372;2024-03-29T04:51:03;99015.22;;;4.73;100.00
68525;BME280;55524;51.380;13.372;2024-03-29T04:53:29;99019.06;;;4.62;100.00
68525;BME280;55524;51.380;13.372;2024-03-29T04:55:56;99019.19;;;4.59;100.00
68525;BME280;55524;51.380;13.372;2024-03-29T04:58:26;99016.13;;;4.72;100.00
68525;BME280;55524;51.380;13.372;2024-03-29T05:00:53;99026.25;;;4.81;100.00
68525;BME280;55524;51.380;13.372;2024-03-29T05:03:21;99016.84;;;4.99;100.00
68525;BME280;55524;51.380;13.372;2024-03-29T05:05:49;99005.84;;;5.12;100.00
68525;BME280;55524;51.380;13.372;2024-03-29T05:08:16;98988.56;;;5.52;100.00
68525;BME280;55524;51.380;13.372;2024-03-29T05:10:44;98977.16;;;5.75;100.00
68525;BME280;55524;51.380;13.372;2024-03-29T05:13:10;98977.56;;;5.86;100.00
68525;BME280;55524;51.380;13.372;2024-03-29T05:15:37;98978.66;;;6.03;100.00
68525;BME280;55524;51.380;13.372;2024-03-29T05:18:03;98967.50;;;6.18;100.00
68525;BME280;55524;51.380;13.372;2024-03-29T05:20:30;98951.44;;;6.26;100.00
68525;BME280;55524;51.380;13.372;2024-03-29T05:23:00;98946.41;;;6.40;100.00
68525;BME280;55524;51.380;13.372;2024-03-29T05:25:26;98950.88;;;6.57;100.00
68525;BME280;55524;51.380;13.372;2024-03-29T05:27:53;98948.41;;;6.73;100.00
68525;BME280;55524;51.380;13.372;2024-03-29T05:30:19;98936.31;;;6.89;100.00
68525;BME280;55524;51.380;13.372;2024-03-29T05:32:46;98928.84;;;6.99;100.00
68525;BME280;55524;51.380;13.372;2024-03-29T05:35:12;98909.72;;;7.14;100.00
68525;BME280;55524;51.380;13.372;2024-03-29T05:37:39;98900.44;;;7.24;100.00
68525;BME280;55524;51.380;13.372;2024-03-29T05:40:06;98895.06;;;7.27;100.00
68525;BME280;55524;51.380;13.372;2024-03-29T05:42:33;98908.13;;;7.29;100.00
68525;BME280;55524;51.380;13.372;2024-03-29T05:45:03;98913.88;;;7.37;100.00
68525;BME280;55524;51.380;13.372;2024-03-29T05:47:30;98921.66;;;7.38;100.00
68525;BME280;55524;51.380;13.372;2024-03-29T05:49:56;98919.81;;;7.41;100.00
68525;BME280;55524;51.380;13.372;2024-03-29T05:52:23;98939.69;;;7.46;99.71
68525;BME280;55524;51.380;13.372;2024-03-29T05:54:49;98945.66;;;7.50;98.93
68525;BME280;55524;51.380;13.372;2024-03-29T05:57:16;98948.88;;;7.55;98.35
68525;BME280;55524;51.380;13.372;2024-03-29T05:59:42;98967.06;;;7.59;98.63
68525;BME280;55524;51.380;13.372;2024-03-29T06:02:09;98971.31;;;7.62;98.68
68525;BME280;55524;51.380;13.372;2024-03-29T06:04:35;98989.81;;;7.60;99.54
68525;BME280;55524;51.380;13.372;2024-03-29T06:07:04;99001.94;;;7.63;100.00
68525;BME280;55524;51.380;13.372;2024-03-29T06:09:31;98987.47;;;7.54;100.00
68525;BME280;55524;51.380;13.372;2024-03-29T06:12:01;98994.50;;;7.54;100.00
68525;BME280;55524;51.380;13.372;2024-03-29T06:14:27;98992.66;;;7.56;100.00
68525;BME280;55524;51.380;13.372;2024-03-29T06:17:12;98988.09;;;7.59;100.00
68525;BME280;55524;51.380;13.372;2024-03-29T06:19:50;98982.59;;;7.64;100.00
68525;BME280;55524;51.380;13.372;2024-03-29T06:22:18;98985.56;;;7.58;100.00
68525;BME280;55524;51.380;13.372;2024-03-29T06:24:44;99008.75;;;7.67;100.00
68525;BME280;55524;51.380;13.372;2024-03-29T06:27:11;99011.59;;;7.62;100.00
68525;BME280;55524;51.380;13.372;2024-03-29T06:29:37;99032.19;;;7.72;100.00
68525;BME280;55524;51.380;13.372;2024-03-29T06:32:04;99039.31;;;7.70;100.00
68525;BME280;55524;51.380;13.372;2024-03-29T06:34:33;99041.22;;;7.66;100.00
68525;BME280;55524;51.380;13.372;2024-03-29T06:36:59;99026.78;;;7.75;100.00
68525;BME280;55524;51.380;13.372;2024-03-29T06:39:26;98990.53;;;7.99;100.00
68525;BME280;55524;51.380;13.372;2024-03-29T06:41:53;98982.25;;;8.24;96.70
68525;BME280;55524;51.380;13.372;2024-03-29T06:44:19;98988.88;;;8.31;97.18
68525;BME280;55524;51.380;13.372;2024-03-29T06:46:48;98993.94;;;8.35;98.29
68525;BME280;55524;51.380;13.372;2024-03-29T06:49:15;98997.25;;;8.39;97.82
68525;BME280;55524;51.380;13.372;2024-03-29T06:51:41;98991.09;;;8.40;96.84
68525;BME280;55524;51.380;13.372;2024-03-29T06:54:07;98990.75;;;8.46;94.97
68525;BME280;55524;51.380;13.372;2024-03-29T06:56:33;98988.66;;;8.53;94.40
68525;BME280;55524;51.380;13.372;2024-03-29T06:59:00;99000.13;;;8.52;94.98
68525;BME280;55524;51.380;13.372;2024-03-29T07:01:26;98998.09;;;8.57;94.89
68525;BME280;55524;51.380;13.372;2024-03-29T07:03:52;98983.84;;;8.61;94.60
68525;BME280;55524;51.380;13.372;2024-03-29T07:06:19;98984.59;;;8.63;95.05
68525;BME280;55524;51.380;13.372;2024-03-29T07:08:45;98986.75;;;8.72;94.63
68525;BME280;55524;51.380;13.372;2024-03-29T07:11:13;98991.94;;;8.74;94.83
68525;BME280;55524;51.380;13.372;2024-03-29T07:13:39;98996.34;;;8.73;95.41
68525;BME280;55524;51.380;13.372;2024-03-29T07:16:05;98991.88;;;8.75;95.27
68525;BME280;55524;51.380;13.372;2024-03-29T07:18:34;99003.75;;;8.82;94.75
68525;BME280;55524;51.380;13.372;2024-03-29T07:21:01;98985.75;;;8.91;93.13
68525;BME280;55524;51.380;13.372;2024-03-29T07:23:27;98990.84;;;8.94;93.15
68525;BME280;55524;51.380;13.372;2024-03-29T07:26:01;98999.97;;;8.88;94.41
68525;BME280;55524;51.380;13.372;2024-03-29T07:28:29;98994.34;;;8.94;95.00
68525;BME280;55524;51.380;13.372;2024-03-29T07:30:56;98993.00;;;9.03;94.75
68525;BME280;55524;51.380;13.372;2024-03-29T07:33:25;98982.03;;;9.10;94.27
68525;BME280;55524;51.380;13.372;2024-03-29T07:35:55;98978.22;;;9.32;92.55
68525;BME280;55524;51.380;13.372;2024-03-29T07:38:24;98976.09;;;9.39;91.89
68525;BME280;55524;51.380;13.372;2024-03-29T07:40:51;98975.19;;;9.54;89.55
68525;BME280;55524;51.380;13.372;2024-03-29T07:43:21;98975.72;;;9.60;90.40
68525;BME280;55524;51.380;13.372;2024-03-29T07:45:48;98967.94;;;9.73;88.10
68525;BME280;55524;51.380;13.372;2024-03-29T07:48:16;98974.00;;;9.75;87.84
68525;BME280;55524;51.380;13.372;2024-03-29T07:50:44;98982.06;;;9.72;88.77
68525;BME280;55524;51.380;13.372;2024-03-29T07:53:11;98986.91;;;9.80;87.14
68525;BME280;55524;51.380;13.372;2024-03-29T07:55:41;98994.81;;;9.80;87.63
68525;BME280;55524;51.380;13.372;2024-03-29T07:58:07;98983.06;;;9.85;86.66
68525;BME280;55524;51.380;13.372;2024-03-29T08:00:40;98998.31;;;9.80;86.80
68525;BME280;55524;51.380;13.372;2024-03-29T08:03:07;99007.47;;;9.89;87.00
68525;BME280;55524;51.380;13.372;2024-03-29T08:05:34;99016.50;;;9.85;87.16
68525;BME280;55524;51.380;13.372;2024-03-29T08:08:00;99021.06;;;9.97;87.31
68525;BME280;55524;51.380;13.372;2024-03-29T08:10:27;99018.44;;;9.97;87.88
68525;BME280;55524;51.380;13.372;2024-03-29T08:12:53;99023.38;;;10.03;85.55
68525;BME280;55524;51.380;13.372;2024-03-29T08:15:19;99026.41;;;10.12;84.90
68525;BME280;55524;51.380;13.372;2024-03-29T08:17:46;99034.56;;;10.23;81.99
68525;BME280;55524;51.380;13.372;2024-03-29T08:20:13;99021.78;;;10.31;81.09
68525;BME280;55524;51.380;13.372;2024-03-29T08:22:39;99038.03;;;10.39;83.08
68525;BME280;55524;51.380;13.372;2024-03-29T08:25:05;99011.06;;;10.34;84.27
68525;BME280;55524;51.380;13.372;2024-03-29T08:27:32;99001.53;;;10.46;79.67
68525;BME280;55524;51.380;13.372;2024-03-29T08:29:58;99000.88;;;10.42;84.36
68525;BME280;55524;51.380;13.372;2024-03-29T08:32:25;99015.66;;;10.45;83.98
68525;BME280;55524;51.380;13.372;2024-03-29T08:34:51;99012.78;;;10.49;83.51
68525;BME280;55524;51.380;13.372;2024-03-29T08:37:18;99033.81;;;10.51;85.68
68525;BME280;55524;51.380;13.372;2024-03-29T08:39:44;99024.28;;;10.63;76.59
68525;BME280;55524;51.380;13.372;2024-03-29T08:42:11;99036.19;;;10.70;77.26
68525;BME280;55524;51.380;13.372;2024-03-29T08:44:38;99043.72;;;10.76;79.09
68525;BME280;55524;51.380;13.372;2024-03-29T08:47:05;99023.81;;;10.84;74.52
68525;BME280;55524;51.380;13.372;2024-03-29T08:49:31;99029.22;;;10.83;76.95
68525;BME280;55524;51.380;13.372;2024-03-29T08:51:58;99044.31;;;10.81;78.40
68525;BME280;55524;51.380;13.372;2024-03-29T08:54:26;99049.41;;;10.98;75.27
68525;BME280;55524;51.380;13.372;2024-03-29T08:56:54;99063.28;;;11.02;79.18
68525;BME280;55524;51.380;13.372;2024-03-29T08:59:20;99066.50;;;11.07;79.78
68525;BME280;55524;51.380;13.372;2024-03-29T09:01:46;99074.53;;;11.05;87.11
68525;BME280;55524;51.380;13.372;2024-03-29T09:04:17;99077.66;;;10.98;90.00
68525;BME280;55524;51.380;13.372;2024-03-29T09:06:46;99074.72;;;11.02;89.12
68525;BME280;55524;51.380;13.372;2024-03-29T09:09:15;99080.38;;;10.96;89.02
68525;BME280;55524;51.380;13.372;2024-03-29T09:11:42;99088.13;;;10.85;95.09
68525;BME280;55524;51.380;13.372;2024-03-29T09:14:09;99081.97;;;10.84;95.07
68525;BME280;55524;51.380;13.372;2024-03-29T09:16:35;99078.09;;;10.90;94.18
68525;BME280;55524;51.380;13.372;2024-03-29T09:19:02;99060.00;;;10.98;94.28
68525;BME280;55524;51.380;13.372;2024-03-29T09:21:28;99060.25;;;11.08;93.32
68525;BME280;55524;51.380;13.372;2024-03-29T09:23:54;99047.41;;;11.30;89.78
68525;BME280;55524;51.380;13.372;2024-03-29T09:26:21;99046.72;;;11.41;93.82
68525;BME280;55524;51.380;13.372;2024-03-29T09:28:47;99046.13;;;11.50;95.16
68525;BME280;55524;51.380;13.372;2024-03-29T09:31:13;99017.34;;;11.73;86.38
68525;BME280;55524;51.380;13.372;2024-03-29T09:33:39;99028.19;;;11.82;93.48
68525;BME280;55524;51.380;13.372;2024-03-29T09:36:06;98986.13;;;12.05;82.70
68525;BME280;55524;51.380;13.372;2024-03-29T09:38:32;98982.88;;;12.27;85.53
68525;BME280;55524;51.380;13.372;2024-03-29T09:41:14;98938.91;;;12.50;77.90
68525;BME280;55524;51.380;13.372;2024-03-29T09:43:42;98907.56;;;12.93;70.91
68525;BME280;55524;51.380;13.372;2024-03-29T09:46:13;98875.72;;;13.30;69.16
68525;BME280;55524;51.380;13.372;2024-03-29T09:48:43;98862.28;;;13.44;69.14
68525;BME280;55524;51.380;13.372;2024-03-29T09:51:12;98830.75;;;13.64;61.95
68525;BME280;55524;51.380;13.372;2024-03-29T09:53:43;98853.72;;;13.76;66.16
68525;BME280;55524;51.380;13.372;2024-03-29T09:56:10;98834.66;;;13.82;61.68
68525;BME280;55524;51.380;13.372;2024-03-29T09:58:37;98856.16;;;13.90;65.68
68525;BME280;55524;51.380;13.372;2024-03-29T10:01:05;98868.31;;;13.70;68.42
68525;BME280;55524;51.380;13.372;2024-03-29T10:03:35;98869.16;;;13.71;68.47
68525;BME280;55524;51.380;13.372;2024-03-29T10:06:02;98892.91;;;13.72;70.38
68525;BME280;55524;51.380;13.372;2024-03-29T10:08:34;98891.38;;;13.81;67.28
68525;BME280;55524;51.380;13.372;2024-03-29T10:11:02;98918.66;;;13.83;69.97
68525;BME280;55524;51.380;13.372;2024-03-29T10:13:29;98912.13;;;13.76;68.70
68525;BME280;55524;51.380;13.372;2024-03-29T10:15:56;98895.22;;;13.77;67.28
68525;BME280;55524;51.380;13.372;2024-03-29T10:18:23;98877.47;;;13.77;64.54
68525;BME280;55524;51.380;13.372;2024-03-29T10:21:04;98874.41;;;13.60;65.47
68525;BME280;55524;51.380;13.372;2024-03-29T10:26:51;98868.03;;;13.62;69.64
68525;BME280;55524;51.380;13.372;2024-03-29T10:29:18;98834.41;;;13.74;65.10
68525;BME280;55524;51.380;13.372;2024-03-29T10:31:44;98816.19;;;13.81;64.44
68525;BME280;55524;51.380;13.372;2024-03-29T10:34:10;98811.97;;;13.78;62.85
68525;BME280;55524;51.380;13.372;2024-03-29T10:36:36;98798.69;;;13.89;61.53
68525;BME280;55524;51.380;13.372;2024-03-29T10:39:12;98794.59;;;13.96;60.99
68525;BME280;55524;51.380;13.372;2024-03-29T10:41:41;98772.63;;;13.94;57.06
68525;BME280;55524;51.380;13.372;2024-03-29T10:44:11;98779.50;;;14.08;57.17
68525;BME280;55524;51.380;13.372;2024-03-29T10:46:38;98775.53;;;14.02;55.86
68525;BME280;55524;51.380;13.372;2024-03-29T10:49:09;98751.63;;;14.02;53.19
68525;BME280;55524;51.380;13.372;2024-03-29T10:51:41;98756.94;;;14.02;53.08
68525;BME280;55524;51.380;13.372;2024-03-29T10:54:11;98761.50;;;14.00;54.20
68525;BME280;55524;51.380;13.372;2024-03-29T10:56:38;98762.13;;;14.04;53.74
68525;BME280;55524;51.380;13.372;2024-03-29T10:59:21;98739.78;;;13.95;50.31
68525;BME280;55524;51.380;13.372;2024-03-29T11:02:01;98735.81;;;13.90;49.52
68525;BME280;55524;51.380;13.372;2024-03-29T11:04:37;98742.06;;;13.77;50.58
68525;BME280;55524;51.380;13.372;2024-03-29T11:07:10;98752.09;;;13.74;51.73
68525;BME280;55524;51.380;13.372;2024-03-29T11:09:40;98762.22;;;13.69;52.63
68525;BME280;55524;51.380;13.372;2024-03-29T11:12:09;98774.41;;;13.71;53.62
68525;BME280;55524;51.380;13.372;2024-03-29T11:14:46;98772.13;;;13.67;54.26
68525;BME280;55524;51.380;13.372;2024-03-29T11:17:14;98780.19;;;13.76;54.15
68525;BME280;55524;51.380;13.372;2024-03-29T11:19:42;98785.41;;;13.78;54.51
68525;BME280;55524;51.380;13.372;2024-03-29T11:22:09;98794.34;;;13.88;55.69
68525;BME280;55524;51.380;13.372;2024-03-29T11:24:39;98804.88;;;13.90;55.73
68525;BME280;55524;51.380;13.372;2024-03-29T11:27:12;98814.88;;;13.97;56.26
68525;BME280;55524;51.380;13.372;2024-03-29T11:29:42;98814.28;;;14.05;56.41
68525;BME280;55524;51.380;13.372;2024-03-29T11:32:09;98811.63;;;14.05;55.88
68525;BME280;55524;51.380;13.372;2024-03-29T11:34:42;98815.63;;;14.11;56.10
68525;BME280;55524;51.380;13.372;2024-03-29T11:37:15;98819.50;;;14.18;56.70
68525;BME280;55524;51.380;13.372;2024-03-29T11:39:47;98822.63;;;14.23;56.90
68525;BME280;55524;51.380;13.372;2024-03-29T11:42:15;98825.66;;;14.30;57.67
68525;BME280;55524;51.380;13.372;2024-03-29T11:44:41;98806.56;;;14.36;55.91
68525;BME280;55524;51.380;13.372;2024-03-29T11:47:08;98815.25;;;14.38;56.77
68525;BME280;55524;51.380;13.372;2024-03-29T11:49:35;98814.75;;;14.44;57.01
68525;BME280;55524;51.380;13.372;2024-03-29T11:52:05;98782.41;;;14.50;52.88
68525;BME280;55524;51.380;13.372;2024-03-29T11:54:39;98796.25;;;14.65;54.37
68525;BME280;55524;51.380;13.372;2024-03-29T11:57:05;98787.94;;;14.69;53.12
68525;BME280;55524;51.380;13.372;2024-03-29T11:59:31;98789.25;;;14.75;53.59
68525;BME280;55524;51.380;13.372;2024-03-29T12:01:58;98793.59;;;14.76;53.95
68525;BME280;55524;51.380;13.372;2024-03-29T12:04:24;98786.78;;;14.94;52.92
68525;BME280;55524;51.380;13.372;2024-03-29T12:06:50;98754.06;;;15.04;50.58
68525;BME280;55524;51.380;13.372;2024-03-29T12:09:16;98768.19;;;15.15;50.58
68525;BME280;55524;51.380;13.372;2024-03-29T12:11:47;98774.69;;;15.22;50.79
68525;BME280;55524;51.380;13.372;2024-03-29T12:14:13;98764.38;;;15.29;50.39
68525;BME280;55524;51.380;13.372;2024-03-29T12:16:45;98774.25;;;15.38;50.81
68525;BME280;55524;51.380;13.372;2024-03-29T12:19:25;98778.78;;;15.47;50.91
68525;BME280;55524;51.380;13.372;2024-03-29T12:21:53;98782.50;;;15.56;50.73
68525;BME280;55524;51.380;13.372;2024-03-29T12:24:20;98802.00;;;15.57;52.34
68525;BME280;55524;51.380;13.372;2024-03-29T12:26:48;98791.97;;;15.49;50.74
68525;BME280;55524;51.380;13.372;2024-03-29T12:29:16;98787.69;;;15.37;48.90
68525;BME280;55524;51.380;13.372;2024-03-29T12:31:42;98781.88;;;15.32;50.25
68525;BME280;55524;51.380;13.372;2024-03-29T12:34:08;98792.81;;;15.29;50.96
68525;BME280;55524;51.380;13.372;2024-03-29T12:36:35;98797.94;;;15.20;50.77
68525;BME280;55524;51.380;13.372;2024-03-29T12:39:01;98804.16;;;15.31;51.75
68525;BME280;55524;51.380;13.372;2024-03-29T12:41:32;98806.81;;;15.31;51.88
68525;BME280;55524;51.380;13.372;2024-03-29T12:44:01;98799.19;;;15.37;51.25
68525;BME280;55524;51.380;13.372;2024-03-29T12:46:28;98809.84;;;15.37;52.71
68525;BME280;55524;51.380;13.372;2024-03-29T12:48:58;98808.91;;;15.48;52.19
68525;BME280;55524;51.380;13.372;2024-03-29T12:51:26;98824.25;;;15.56;53.86
68525;BME280;55524;51.380;13.372;2024-03-29T12:53:53;98830.28;;;15.37;54.16
68525;BME280;55524;51.380;13.372;2024-03-29T12:56:19;98848.97;;;15.25;55.88